Oak Hill, Texas
Current Conditions -  °F | °C
As of 8:51 AM on Friday 28 Nov 2014 (Local Time) from KATT Reporting Station
Overcast Overcast  
Wind Chill: 53°   Ceiling: 1800
Heat Index: 53°   Visibility: 10mi
Dew Point: 46°   Wind: 3mph
Humidity: 77%   Direction: 190°S
Pressure: 30.32"   Gusts: NA
Location:  30.265°N, 97.9624°W
Report Text: KATT 281451Z AUTO 19003KT 10SM OVC018 12/08 A3032 RMK AO2 SLP269 T01170078 53001
Loading
Personal Weather Stations






























Interactive Weather Map New forecast layout! Learn more

10-Day Weather Forecast

Advertisements
Track Severe Weather on mobile